デリー の空港の天気 - METARとTAF

インディラ・ガンディー国際空港 ( VIDP / DEL ) - インド デリー
飛行場実況気象(Metar)
観測時間04/25 21:30 IST (04/25 16:00 UTC)
風向・風速西北西 5m/s 瞬間風速10m/s
視程3500m
天気現象
全天の4割程度の雲 雲底高度 1220m
少しの雲 雲底高度 1220m
全天の8割程度の雲 雲底高度 3050m
気温32℃
湿度29%
気圧1007hPa
METARVIDP 251600Z 30010G20KT 3500 TS SCT040 FEW040CB BKN100 32/12 Q1007 NOSIG
過去の天気等 Google飛行場航空写真 Wunderground天気予報

過去48時間のMETAR

飛行場予報(TAF)
発表時間: 4/25 16:30 IST (4/25 11:00 UTC)
予報対象時間: 25日17時 IST ~ 26日23時 IST
風向・風速西北西 5m/s 瞬間風速 10m/s
視程4,000m
天気現象煙霧
少しの雲 雲底高度 1,220m
全天の4割程度の雲 雲底高度 3,050m
25日20時 IST ~ 25日23時 IST に一時的に
少しの積乱雲 雲底高度 1,070m
26日0時 IST ~ 26日2時 IST に徐々に
風向・風速西 3m/s
視程2,500m
天気現象煙霧
少しの雲 雲底高度 3,050m
26日11時 IST ~ 26日13時 IST に徐々に
風向・風速北西 4m/s 瞬間風速 9m/s
視程4,000m
少しの雲 雲底高度 1,220m
全天の4割程度の雲 雲底高度 3,050m
TAF VIDP 251100Z 2512/2618 30010G20KT 4000 HZ FEW040 SCT100
TEMPO 2515/2518 FEW035CB
BECMG 2519/2521 26005KT 2500 HZ FEW100
BECMG 2606/2608 32008G18KT 4000 FEW040 SCT100